createdAt,value
2018-12-24T00:02:24.040Z,94804.11
2018-12-24T00:04:54.340Z,94846.24
2018-12-24T00:07:24.620Z,94826.00
2018-12-24T00:09:55.022Z,94801.57
2018-12-24T00:12:25.992Z,94784.28
2018-12-24T00:14:56.278Z,94776.21
2018-12-24T00:17:26.564Z,94813.09
2018-12-24T00:19:56.862Z,94779.24
2018-12-24T00:22:27.255Z,94790.88
2018-12-24T00:24:57.549Z,94778.22
2018-12-24T00:27:29.977Z,94766.83
2018-12-24T00:30:00.039Z,94770.47
2018-12-24T00:32:30.313Z,94773.59
2018-12-24T00:35:00.587Z,94814.89
2018-12-24T00:37:30.897Z,94771.38
2018-12-24T00:40:01.148Z,94734.15
2018-12-24T00:42:31.537Z,94767.23
2018-12-24T00:45:01.860Z,94758.23
2018-12-24T00:47:32.198Z,94755.57
2018-12-24T00:50:02.454Z,94742.57
2018-12-24T00:52:32.752Z,94725.64
2018-12-24T00:55:03.099Z,94779.91
2018-12-24T00:57:33.360Z,94721.94
2018-12-24T01:00:03.998Z,94749.56
2018-12-24T01:02:34.356Z,94759.59
2018-12-24T01:05:04.911Z,94720.94
2018-12-24T01:07:35.355Z,94722.80
2018-12-24T01:10:06.162Z,94728.69
2018-12-24T01:12:36.495Z,94725.95
2018-12-24T01:15:08.033Z,94713.33
2018-12-24T01:18:14.557Z,94762.83
2018-12-24T01:20:44.506Z,94710.15
2018-12-24T01:23:14.335Z,94763.82
2018-12-24T01:25:44.328Z,94724.02
2018-12-24T01:28:14.170Z,94755.63
2018-12-24T01:30:44.159Z,94701.00
2018-12-24T01:33:14.051Z,94718.30
2018-12-24T01:35:43.940Z,94705.52
2018-12-24T01:38:13.804Z,94716.77
2018-12-24T01:40:43.818Z,94725.51
2018-12-24T01:43:13.684Z,94714.00
2018-12-24T01:45:43.511Z,94703.36
2018-12-24T01:48:13.380Z,94694.59
2018-12-24T01:50:43.283Z,94679.23
2018-12-24T01:53:13.254Z,94672.41
2018-12-24T01:55:43.088Z,94700.53
2018-12-24T01:58:13.055Z,94675.38
2018-12-24T02:00:43.183Z,94691.33
2018-12-24T02:03:13.098Z,94670.81
2018-12-24T02:05:42.930Z,94668.75
2018-12-24T02:08:12.788Z,94699.14
2018-12-24T02:10:42.747Z,94685.16
2018-12-24T02:13:12.649Z,94661.33
2018-12-24T02:15:42.559Z,94653.42
2018-12-24T02:18:12.581Z,94649.75
2018-12-24T02:20:42.549Z,94605.36
2018-12-24T02:23:12.383Z,94680.77
2018-12-24T02:25:42.265Z,94637.25
2018-12-24T02:28:12.104Z,94626.80
2018-12-24T02:30:41.969Z,94632.38
2018-12-24T02:33:11.875Z,94607.15
2018-12-24T02:35:41.866Z,94683.52
2018-12-24T02:38:11.702Z,94606.48
2018-12-24T02:40:41.585Z,94615.05
2018-12-24T02:43:11.480Z,94578.81
2018-12-24T02:45:41.519Z,94610.63
2018-12-24T02:48:11.515Z,94597.64
2018-12-24T02:50:41.327Z,94591.55
2018-12-24T02:53:11.427Z,94584.73
2018-12-24T02:55:41.295Z,94569.71
2018-12-24T02:58:11.187Z,94567.15
2018-12-24T03:00:41.051Z,94569.38
2018-12-24T03:03:10.984Z,94587.63
2018-12-24T03:05:40.782Z,94577.04
2018-12-24T03:24:04.914Z,94582.48
2018-12-24T03:26:34.788Z,94563.97
2018-12-24T03:29:05.216Z,94567.05
2018-12-24T03:31:35.130Z,94571.21
2018-12-24T03:34:05.027Z,94581.32
2018-12-24T03:36:34.996Z,94595.88
2018-12-24T03:39:06.779Z,94571.08
2018-12-24T03:41:36.727Z,94577.59
2018-12-24T03:44:06.543Z,94586.09
2018-12-24T03:46:36.496Z,94611.47
2018-12-24T03:49:06.406Z,94639.61
2018-12-24T03:51:36.248Z,94696.95
2018-12-24T03:54:06.254Z,94771.33
2018-12-24T03:56:36.195Z,94883.39
2018-12-24T03:59:06.099Z,94883.83
2018-12-24T04:01:36.077Z,94848.64
2018-12-24T04:04:06.016Z,94818.39
2018-12-24T04:06:35.984Z,94805.38
2018-12-24T04:09:07.115Z,94815.97
2018-12-24T04:11:36.973Z,94808.76
2018-12-24T04:14:06.840Z,94822.13
2018-12-24T04:16:36.675Z,94834.80
2018-12-24T04:19:06.548Z,94853.69
2018-12-24T04:21:36.442Z,94847.14
2018-12-24T04:24:06.331Z,94854.92
2018-12-24T04:26:36.208Z,94860.70
2018-12-24T04:29:06.046Z,94870.66
